KFME/FME METAR and TAF weather

Enter ICAO airport designator
Station Type Date Time Source
KFME METAR 2018/12/12 12:03 UTC NOAA

KFME 121203Z AUTO 00000KT 10SM OVC048 M01/M03 A3019 RMK AO1


Station Type Date Time Source
KFME Decoded METAR 2018/12/12 12:03 UTC NOAA

Fort Meade / Tipton, MD, United States (KFME) 39-05N 076-46W
Dec 12, 2018 - 07:03 AM EST / 2018.12.12 1203 UTC
Wind: Calm:0
Visibility: 10 mile(s):0
Sky conditions: overcast
Temperature: 30 F (-1 C)
Dew Point: 26 F (-3 C)
Relative Humidity: 86%
Pressure (altimeter): 30.19 in. Hg (1022 hPa)
ob: KFME 121203Z AUTO 00000KT 10SM OVC048 M01/M03 A3019 RMK AO1
cycle: 12

Station Type Date Time Source
KFME TAF UTC NOAA

Error!


Example: see airport list